Time,TemperatureF,DewpointF,PressureIn,WindDirection,WindDirectionDegrees,WindSpeedMPH,WindSpeedGustMPH,Humidity,HourlyPrecipIn,Conditions,Clouds,dailyrainin,SoftwareType,DateUTC
2013-09-26 00:23:00,58.0,50.0,29.94,SSE,157,0.0,0.0,75,0.00,,,0.00,,2013-09-26 05:23:00,
2013-09-26 00:43:00,57.0,50.0,29.94,SSE,157,0.0,0.0,76,0.00,,,0.00,,2013-09-26 05:43:00,
2013-09-26 00:52:00,57.0,50.0,29.94,SSE,157,0.0,0.0,77,0.00,,,0.00,,2013-09-26 05:52:00,
2013-09-26 01:12:00,56.0,49.0,29.95,SSE,157,0.0,0.0,78,0.00,,,0.00,,2013-09-26 06:12:00,
2013-09-26 01:22:00,56.0,50.0,29.95,SSE,157,0.0,0.0,79,0.00,,,0.00,,2013-09-26 06:22:00,
2013-09-26 01:42:00,55.0,49.0,29.95,SSE,157,0.0,0.0,80,0.00,,,0.00,,2013-09-26 06:42:00,
2013-09-26 01:53:00,55.0,49.0,29.96,SSE,157,0.0,0.0,81,0.00,,,0.00,,2013-09-26 06:53:00,
2013-09-26 02:12:00,54.0,49.0,29.97,SSE,157,0.0,0.0,82,0.00,,,0.00,,2013-09-26 07:12:00,
2013-09-26 02:22:00,54.0,49.0,29.96,SSE,157,0.0,0.0,82,0.00,,,0.00,,2013-09-26 07:22:00,
2013-09-26 02:42:00,53.0,48.0,29.96,SSE,157,0.0,0.0,83,0.00,,,0.00,,2013-09-26 07:42:00,
2013-09-26 02:53:00,53.0,48.0,29.96,SSE,157,0.0,0.0,84,0.00,,,0.00,,2013-09-26 07:53:00,
2013-09-26 03:11:00,53.0,48.0,29.96,SSE,157,0.0,0.0,84,0.00,,,0.00,,2013-09-26 08:11:00,
2013-09-26 03:22:00,53.0,49.0,29.96,SSE,157,0.0,0.0,85,0.00,,,0.00,,2013-09-26 08:22:00,
2013-09-26 03:42:00,52.0,48.0,29.96,SSE,157,0.0,0.0,85,0.00,,,0.00,,2013-09-26 08:42:00,
2013-09-26 03:52:00,52.0,48.0,29.97,SSE,157,0.0,0.0,85,0.00,,,0.00,,2013-09-26 08:52:00,
2013-09-26 04:11:00,52.0,48.0,29.96,SSE,157,0.0,0.0,85,0.00,,,0.00,,2013-09-26 09:11:00,
2013-09-26 04:22:00,52.0,48.0,29.97,SSE,157,0.0,0.0,86,0.00,,,0.00,,2013-09-26 09:22:00,
2013-09-26 04:43:00,52.0,48.0,29.98,SSE,157,0.0,0.0,86,0.00,,,0.00,,2013-09-26 09:43:00,
2013-09-26 04:54:00,52.0,48.0,29.97,SSE,157,0.0,0.0,86,0.00,,,0.00,,2013-09-26 09:54:00,
2013-09-26 05:12:00,52.0,48.0,29.97,SSE,157,0.0,1.0,86,0.00,,,0.00,,2013-09-26 10:12:00,
2013-09-26 05:23:00,52.0,48.0,29.98,SSE,157,0.0,0.0,87,0.00,,,0.00,,2013-09-26 10:23:00,
2013-09-26 05:42:00,52.0,48.0,29.98,SSE,157,0.0,0.0,86,0.00,,,0.00,,2013-09-26 10:42:00,
2013-09-26 05:53:00,52.0,48.0,29.98,SSE,157,0.0,0.0,86,0.00,,,0.00,,2013-09-26 10:53:00,
2013-09-26 06:12:00,52.0,48.0,29.98,SSE,157,0.0,0.0,86,0.00,,,0.00,,2013-09-26 11:12:00,
2013-09-26 06:22:00,52.0,48.0,29.99,SSE,157,0.0,0.0,86,0.00,,,0.00,,2013-09-26 11:22:00,
2013-09-26 06:42:00,51.0,47.0,29.99,SSE,157,0.0,0.0,86,0.00,,,0.00,,2013-09-26 11:42:00,
2013-09-26 06:52:00,51.0,47.0,29.99,SSE,157,0.0,0.0,87,0.00,,,0.00,,2013-09-26 11:52:00,
2013-09-26 07:12:00,51.0,47.0,30.00,SSE,157,0.0,0.0,87,0.00,,,0.00,,2013-09-26 12:12:00,
2013-09-26 07:22:00,51.0,47.0,30.00,SSE,157,0.0,0.0,87,0.00,,,0.00,,2013-09-26 12:22:00,
2013-09-26 07:42:00,51.0,47.0,30.00,SSE,157,0.0,0.0,87,0.00,,,0.00,,2013-09-26 12:42:00,
2013-09-26 07:52:00,51.0,47.0,30.00,SSE,157,0.0,1.0,87,0.00,,,0.00,,2013-09-26 12:52:00,
2013-09-26 08:11:00,52.0,49.0,30.00,SSE,157,0.0,0.0,88,0.00,,,0.00,,2013-09-26 13:11:00,
2013-09-26 08:22:00,52.0,49.0,30.01,SSE,157,0.0,0.0,88,0.00,,,0.00,,2013-09-26 13:22:00,
2013-09-26 08:52:00,54.0,51.0,30.01,SSE,157,0.0,0.0,88,0.00,,,0.00,,2013-09-26 13:52:00,
2013-09-26 09:11:00,55.0,52.0,30.01,SSE,157,0.0,0.0,88,0.00,,,0.00,,2013-09-26 14:11:00,
2013-09-26 09:22:00,56.0,52.0,30.01,SSE,157,0.0,1.0,88,0.00,,,0.00,,2013-09-26 14:22:00,
2013-09-26 09:42:00,58.0,54.0,30.01,SSE,157,0.0,2.0,86,0.00,,,0.00,,2013-09-26 14:42:00,
2013-09-26 09:52:00,60.0,55.0,30.01,SSE,160,0.0,1.0,83,0.00,,,0.00,,2013-09-26 14:52:00,
2013-09-26 10:11:00,62.0,55.0,30.01,East,91,0.0,1.0,79,0.00,,,0.00,,2013-09-26 15:11:00,
2013-09-26 10:22:00,65.0,56.0,30.01,ESE,113,0.0,3.0,74,0.00,,,0.00,,2013-09-26 15:22:00,
2013-09-26 10:44:00,68.0,58.0,30.01,ENE,76,0.0,2.0,70,0.00,,,0.00,,2013-09-26 15:44:00,
2013-09-26 10:54:00,70.0,59.0,30.01,East,90,0.0,1.0,67,0.00,,,0.00,,2013-09-26 15:54:00,
2013-09-26 14:22:00,86.0,57.0,29.97,ESE,114,1.0,4.0,38,0.00,,,0.00,,2013-09-26 19:22:00,
2013-09-26 14:52:00,87.0,58.0,29.96,ESE,102,0.0,3.0,38,0.00,,,0.00,,2013-09-26 19:52:00,
2013-09-26 15:12:00,87.0,58.0,29.96,ESE,107,0.0,2.0,37,0.00,,,0.00,,2013-09-26 20:12:00,
2013-09-26 15:22:00,87.0,57.0,29.96,ESE,113,2.0,5.0,36,0.00,,,0.00,,2013-09-26 20:22:00,
2013-09-26 15:42:00,87.0,58.0,29.96,ESE,107,0.0,2.0,37,0.00,,,0.00,,2013-09-26 20:42:00,
2013-09-26 15:52:00,87.0,57.0,29.96,ESE,120,0.0,3.0,36,0.00,,,0.00,,2013-09-26 20:52:00,
2013-09-26 16:11:00,88.0,56.0,29.96,SE,138,0.0,3.0,34,0.00,,,0.00,,2013-09-26 21:11:00,
2013-09-26 16:23:00,87.0,56.0,29.96,East,86,2.0,7.0,35,0.00,,,0.00,,2013-09-26 21:23:00,
2013-09-26 16:54:00,86.0,57.0,29.96,ESE,115,0.0,4.0,37,0.00,,,0.00,,2013-09-26 21:54:00,
2013-09-26 17:14:00,85.0,57.0,29.96,SE,124,0.0,2.0,39,0.00,,,0.00,,2013-09-26 22:14:00,
2013-09-26 17:24:00,84.0,57.0,29.96,ESE,113,0.0,1.0,40,0.00,,,0.00,,2013-09-26 22:24:00,
2013-09-26 17:43:00,85.0,58.0,29.96,ESE,113,0.0,1.0,40,0.00,,,0.00,,2013-09-26 22:43:00,
2013-09-26 17:54:00,84.0,57.0,29.97,ESE,113,0.0,1.0,40,0.00,,,0.00,,2013-09-26 22:54:00,
2013-09-26 18:12:00,83.0,57.0,29.97,ESE,119,0.0,4.0,41,0.00,,,0.00,,2013-09-26 23:12:00,
2013-09-26 18:23:00,82.0,57.0,29.96,ESE,119,0.0,1.0,43,0.00,,,0.00,,2013-09-26 23:23:00,
2013-09-26 18:53:00,80.0,59.0,29.97,ESE,119,0.0,0.0,48,0.00,,,0.00,,2013-09-26 23:53:00,
2013-09-26 19:22:00,76.0,59.0,29.97,ESE,119,0.0,0.0,55,0.00,,,0.00,,2013-09-27 00:22:00,
2013-09-26 19:43:00,73.0,58.0,29.97,ESE,119,0.0,0.0,60,0.00,,,0.00,,2013-09-27 00:43:00,
2013-09-26 19:52:00,71.0,58.0,29.98,ESE,119,0.0,0.0,64,0.00,,,0.00,,2013-09-27 00:52:00,
2013-09-26 20:12:00,70.0,59.0,29.98,ESE,119,0.0,0.0,67,0.00,,,0.00,,2013-09-27 01:12:00,
2013-09-26 20:23:00,68.0,58.0,29.98,ESE,119,0.0,0.0,71,0.00,,,0.00,,2013-09-27 01:23:00,
2013-09-26 20:42:00,67.0,58.0,29.98,ESE,119,0.0,0.0,73,0.00,,,0.00,,2013-09-27 01:42:00,
2013-09-26 20:52:00,66.0,58.0,29.99,ESE,119,0.0,0.0,75,0.00,,,0.00,,2013-09-27 01:52:00,
2013-09-26 21:12:00,65.0,57.0,29.99,ESE,119,0.0,0.0,76,0.00,,,0.00,,2013-09-27 02:12:00,
2013-09-26 21:22:00,64.0,57.0,30.00,ESE,119,0.0,0.0,78,0.00,,,0.00,,2013-09-27 02:22:00,
2013-09-26 21:42:00,64.0,57.0,30.00,ESE,119,0.0,0.0,78,0.00,,,0.00,,2013-09-27 02:42:00,
2013-09-26 21:53:00,63.0,56.0,30.00,ESE,119,0.0,0.0,77,0.00,,,0.00,,2013-09-27 02:53:00,
2013-09-26 22:12:00,63.0,55.0,30.01,ESE,119,0.0,1.0,75,0.00,,,0.00,,2013-09-27 03:12:00,
2013-09-26 22:22:00,63.0,55.0,30.01,ESE,119,0.0,0.0,74,0.00,,,0.00,,2013-09-27 03:22:00,
2013-09-26 22:55:00,63.0,54.0,30.01,ESE,119,0.0,0.0,73,0.00,,,0.00,,2013-09-27 03:55:00,
2013-09-26 23:24:00,62.0,53.0,30.01,ESE,119,0.0,0.0,73,0.00,,,0.00,,2013-09-27 04:24:00,
2013-09-26 23:44:00,61.0,53.0,30.02,ESE,119,0.0,0.0,74,0.00,,,0.00,,2013-09-27 04:44:00,
2013-09-26 23:54:00,60.0,52.0,30.02,ESE,119,0.0,0.0,75,0.00,,,0.00,,2013-09-27 04:54:00,